createdAt,value
2019-03-13T00:00:52.932Z,97588.30
2019-03-13T00:02:56.731Z,97578.20
2019-03-13T00:05:00.591Z,97572.09
2019-03-13T00:07:04.386Z,97561.22
2019-03-13T00:09:11.449Z,97552.11
2019-03-13T00:11:15.217Z,97548.91
2019-03-13T00:13:19.062Z,97547.36
2019-03-13T00:15:22.849Z,97541.70
2019-03-13T00:17:26.545Z,97547.98
2019-03-13T00:19:30.343Z,97550.72
2019-03-13T00:21:34.061Z,97550.72
2019-03-13T00:23:37.819Z,97544.75
2019-03-13T00:25:41.630Z,97536.11
2019-03-13T00:27:45.358Z,97515.27
2019-03-13T00:29:49.140Z,97509.58
2019-03-13T00:31:52.868Z,97500.09
2019-03-13T00:33:56.596Z,97499.27
2019-03-13T00:36:00.376Z,97494.67
2019-03-13T00:38:04.116Z,97489.25
2019-03-13T00:40:08.008Z,97493.86
2019-03-13T00:42:11.817Z,97489.83
2019-03-13T00:44:15.567Z,97490.69
2019-03-13T00:46:19.502Z,97484.23
2019-03-13T00:48:23.225Z,97489.67
2019-03-13T00:50:28.895Z,97488.88
2019-03-13T00:52:32.630Z,97491.30
2019-03-13T00:54:36.446Z,97491.58
2019-03-13T00:56:40.222Z,97491.03
2019-03-13T00:58:43.966Z,97488.31
2019-03-13T01:01:05.105Z,97487.20
2019-03-13T01:03:14.491Z,97491.02
2019-03-13T01:05:21.761Z,97482.05
2019-03-13T01:07:25.465Z,97477.98
2019-03-13T01:09:29.420Z,97482.05
2019-03-13T01:11:33.142Z,97466.84
2019-03-13T01:13:36.891Z,97474.46
2019-03-13T01:15:40.606Z,97478.53
2019-03-13T01:17:44.311Z,97485.61
2019-03-13T01:19:48.044Z,97480.20
2019-03-13T01:21:51.874Z,97488.06
2019-03-13T01:23:55.689Z,97491.61
2019-03-13T01:25:59.548Z,97498.42
2019-03-13T01:28:03.267Z,97490.82
2019-03-13T01:30:08.014Z,97489.22
2019-03-13T01:32:35.228Z,97483.26
2019-03-13T01:34:55.727Z,97483.26
2019-03-13T01:36:59.747Z,97489.78
2019-03-13T01:39:04.353Z,97491.94
2019-03-13T01:41:08.738Z,97489.80
2019-03-13T01:43:12.496Z,97493.06
2019-03-13T01:45:16.801Z,97508.25
2019-03-13T01:47:20.538Z,97516.69
2019-03-13T01:49:24.269Z,97517.77
2019-03-13T01:51:28.312Z,97504.20
2019-03-13T01:53:32.060Z,97524.61
2019-03-13T01:55:35.777Z,97539.04
2019-03-13T01:57:39.696Z,97551.21
2019-03-13T01:59:43.421Z,97558.46
2019-03-13T02:01:47.136Z,97574.91
2019-03-13T02:03:50.880Z,97563.94
2019-03-13T02:05:54.575Z,97574.16
2019-03-13T02:07:58.391Z,97582.44
2019-03-13T02:10:02.157Z,97599.14
2019-03-13T02:12:05.889Z,97604.78
2019-03-13T02:14:09.714Z,97637.83
2019-03-13T02:16:13.435Z,97664.66
2019-03-13T02:18:17.187Z,97696.80
2019-03-13T02:20:20.973Z,97709.87
2019-03-13T02:22:24.702Z,97720.95
2019-03-13T02:24:28.553Z,97729.53
2019-03-13T02:26:32.267Z,97739.25
2019-03-13T02:28:36.225Z,97742.84
2019-03-13T02:30:40.021Z,97746.73
2019-03-13T02:32:43.897Z,97756.30
2019-03-13T02:34:47.766Z,97771.34
2019-03-13T02:36:51.485Z,97775.05
2019-03-13T02:38:55.200Z,97788.31
2019-03-13T02:40:58.941Z,97791.80
2019-03-13T02:43:02.671Z,97798.05
2019-03-13T02:45:07.670Z,97795.35
2019-03-13T02:47:11.309Z,97800.49
2019-03-13T02:49:15.065Z,97811.89
2019-03-13T02:51:18.819Z,97818.66
2019-03-13T02:53:22.557Z,97821.66
2019-03-13T02:55:26.283Z,97814.59
2019-03-13T02:57:30.076Z,97815.42
2019-03-13T02:59:33.843Z,97823.71
2019-03-13T03:01:42.507Z,97825.22
2019-03-13T03:03:49.924Z,97822.89
2019-03-13T03:05:53.636Z,97829.45
2019-03-13T03:07:57.366Z,97835.23
2019-03-13T03:10:01.093Z,97839.48
2019-03-13T03:12:04.871Z,97838.82
2019-03-13T03:14:08.780Z,97839.28
2019-03-13T03:16:12.643Z,97846.77
2019-03-13T03:18:16.456Z,97844.78
2019-03-13T03:20:20.322Z,97842.77
2019-03-13T03:22:24.052Z,97860.78
2019-03-13T03:24:27.805Z,97864.66
2019-03-13T03:26:31.568Z,97872.66
2019-03-13T03:28:35.318Z,97873.70
2019-03-13T03:30:39.100Z,97881.34
2019-03-13T03:32:42.871Z,97884.74
2019-03-13T03:34:46.595Z,97875.28
2019-03-13T03:36:50.302Z,97880.11
2019-03-13T03:38:54.049Z,97896.20
2019-03-13T03:40:57.765Z,97895.50
2019-03-13T03:43:01.496Z,97895.59
2019-03-13T03:45:06.015Z,97904.66
2019-03-13T03:47:09.719Z,97913.92
2019-03-13T03:49:13.467Z,97919.94
2019-03-13T03:51:17.251Z,97923.59
2019-03-13T03:53:20.972Z,97925.61
2019-03-13T03:55:24.775Z,97930.59
2019-03-13T03:57:28.476Z,97929.64
2019-03-13T03:59:32.321Z,97938.13
2019-03-13T04:01:36.039Z,97931.17
2019-03-13T04:03:39.767Z,97935.54
2019-03-13T04:05:43.567Z,97939.83
2019-03-13T04:07:47.340Z,97944.12
2019-03-13T04:09:51.187Z,97951.91
2019-03-13T04:11:54.947Z,97945.41
2019-03-13T04:13:58.680Z,97960.11
2019-03-13T04:16:02.390Z,97958.89
2019-03-13T04:18:06.094Z,97963.18
2019-03-13T04:20:10.560Z,97966.40
2019-03-13T04:22:14.238Z,97963.46
2019-03-13T04:24:17.963Z,97963.94
2019-03-13T04:26:21.678Z,97972.48
2019-03-13T04:28:25.383Z,97980.43
2019-03-13T04:30:29.198Z,97977.00
2019-03-13T04:32:32.892Z,97978.64
2019-03-13T04:34:36.668Z,97981.95
2019-03-13T04:36:40.405Z,97988.82
2019-03-13T04:38:44.193Z,97996.40
2019-03-13T04:40:47.945Z,98008.06
2019-03-13T04:42:51.730Z,98010.09
2019-03-13T04:44:55.547Z,98012.91
2019-03-13T04:46:59.262Z,98019.80
2019-03-13T04:49:02.998Z,98016.35
2019-03-13T04:51:06.717Z,98021.19
2019-03-13T04:53:10.485Z,98024.12
2019-03-13T04:55:14.672Z,98030.42
2019-03-13T04:57:18.431Z,98026.11
2019-03-13T04:59:22.136Z,98030.23
2019-03-13T05:01:26.325Z,98030.94
2019-03-13T05:03:30.112Z,98038.81
2019-03-13T05:05:50.138Z,98040.16
2019-03-13T05:07:53.880Z,98032.05
2019-03-13T05:09:57.611Z,98037.39
2019-03-13T05:12:01.328Z,98037.82
2019-03-13T05:14:05.238Z,98039.46
2019-03-13T05:16:08.960Z,98052.66
2019-03-13T05:18:12.655Z,98063.39
2019-03-13T05:20:16.403Z,98067.59
2019-03-13T05:22:20.110Z,98067.59
2019-03-13T05:24:23.850Z,98082.30
2019-03-13T05:26:27.628Z,98073.34
2019-03-13T05:28:31.338Z,98080.55
2019-03-13T05:30:35.082Z,98087.31
2019-03-13T05:32:38.811Z,98088.95
2019-03-13T05:34:42.623Z,98097.48
2019-03-13T05:36:46.322Z,98100.70
2019-03-13T05:38:50.044Z,98088.56
2019-03-13T05:40:53.850Z,98093.95
2019-03-13T05:42:57.629Z,98093.28
2019-03-13T05:45:01.365Z,98096.73
2019-03-13T05:47:05.120Z,98084.83
2019-03-13T05:49:08.831Z,98080.39
2019-03-13T05:51:12.551Z,98085.95
2019-03-13T05:53:16.253Z,98082.10
2019-03-13T05:55:19.989Z,98091.11
2019-03-13T05:57:23.710Z,98091.50
2019-03-13T05:59:27.500Z,98095.63
2019-03-13T06:01:31.234Z,98086.98
2019-03-13T06:03:34.935Z,98081.66
2019-03-13T06:05:38.671Z,98085.78
2019-03-13T06:07:42.445Z,98083.40
2019-03-13T06:09:46.149Z,98084.31
2019-03-13T06:11:49.881Z,98088.95
2019-03-13T06:13:53.644Z,98093.08
2019-03-13T06:15:57.383Z,98091.80
2019-03-13T06:18:01.080Z,98096.76
2019-03-13T06:20:05.485Z,98095.69
2019-03-13T06:22:09.184Z,98106.05
2019-03-13T06:24:12.894Z,98101.55
2019-03-13T06:26:16.737Z,98099.24
2019-03-13T06:28:20.470Z,98093.76
2019-03-13T06:30:24.202Z,98093.59
2019-03-13T06:32:27.953Z,98089.34
2019-03-13T06:34:31.668Z,98096.02
2019-03-13T06:36:35.504Z,98097.42
2019-03-13T06:38:39.232Z,98098.62
2019-03-13T06:40:43.051Z,98097.06
2019-03-13T06:42:46.868Z,98103.81
2019-03-13T06:44:50.673Z,98098.22
2019-03-13T06:46:54.516Z,98108.64
2019-03-13T06:48:58.220Z,98106.59
2019-03-13T06:51:02.231Z,98103.71
2019-03-13T06:53:05.931Z,98106.20
2019-03-13T06:55:09.910Z,98101.48
2019-03-13T06:57:13.740Z,98095.27
2019-03-13T06:59:22.281Z,98096.33
2019-03-13T07:01:41.855Z,98099.84
2019-03-13T07:04:21.159Z,98096.13
2019-03-13T07:06:42.795Z,98085.08
2019-03-13T07:09:20.724Z,98091.66
2019-03-13T07:11:34.878Z,98100.20
2019-03-13T07:13:44.441Z,98088.67
2019-03-13T07:16:02.719Z,98100.61
2019-03-13T07:18:28.195Z,98096.45
2019-03-13T07:20:49.608Z,98096.33
2019-03-13T07:23:10.981Z,98094.97
2019-03-13T07:25:33.584Z,98079.67
2019-03-13T07:27:47.407Z,98078.20
2019-03-13T07:29:59.840Z,98081.78
2019-03-13T07:32:25.551Z,98079.43
2019-03-13T07:34:45.521Z,98080.64
2019-03-13T07:37:01.898Z,98078.23
2019-03-13T07:39:20.128Z,98077.72
2019-03-13T07:41:54.938Z,98072.35
2019-03-13T07:44:23.957Z,98072.63
2019-03-13T07:46:49.834Z,98081.58
2019-03-13T07:49:12.558Z,98075.23
2019-03-13T07:51:34.057Z,98079.00
2019-03-13T07:53:48.239Z,98080.64
2019-03-13T07:56:04.148Z,98089.35
2019-03-13T07:58:16.755Z,98088.97
2019-03-13T08:00:27.301Z,98091.66
2019-03-13T08:02:56.040Z,98087.91
2019-03-13T08:05:06.105Z,98095.59
2019-03-13T08:07:32.056Z,98098.09
2019-03-13T08:10:06.597Z,98090.30
2019-03-13T08:12:41.362Z,98081.38
2019-03-13T08:15:10.273Z,98071.39
2019-03-13T08:17:36.038Z,98065.28
2019-03-13T08:19:58.778Z,98061.29
2019-03-13T08:22:15.891Z,98055.25
2019-03-13T08:24:41.648Z,98062.04
2019-03-13T08:26:57.149Z,98060.14
2019-03-13T08:29:12.725Z,98061.03
2019-03-13T08:31:33.946Z,98067.31
2019-03-13T08:34:07.057Z,98066.75
2019-03-13T08:36:23.153Z,98077.26
2019-03-13T08:38:35.267Z,98076.27
2019-03-13T08:40:48.614Z,98082.87
2019-03-13T08:43:11.275Z,98074.13
2019-03-13T08:45:34.514Z,98066.73
2019-03-13T08:48:15.478Z,98066.20
2019-03-13T08:50:35.795Z,98075.84
2019-03-13T08:53:10.527Z,98081.00
2019-03-13T08:55:32.092Z,98083.17
2019-03-13T08:57:42.370Z,98078.33
2019-03-13T09:00:17.276Z,98092.31
2019-03-13T09:02:29.926Z,98080.63
2019-03-13T09:04:52.664Z,98078.45
2019-03-13T09:07:21.512Z,98059.09
2019-03-13T09:09:47.146Z,98058.89
2019-03-13T09:11:58.849Z,98060.27
2019-03-13T09:14:13.756Z,98051.73
2019-03-13T09:16:33.047Z,98047.35
2019-03-13T09:18:48.974Z,98041.36
2019-03-13T09:21:11.804Z,98043.27
2019-03-13T09:23:26.856Z,98040.80
2019-03-13T09:25:45.544Z,98043.97
2019-03-13T09:27:56.914Z,98035.83
2019-03-13T09:30:25.770Z,98025.66
2019-03-13T09:33:00.523Z,98038.33
2019-03-13T09:35:22.409Z,98024.83
2019-03-13T09:37:55.391Z,98035.47
2019-03-13T09:40:20.585Z,98048.17
2019-03-13T09:42:43.376Z,98051.92
2019-03-13T09:45:11.965Z,98048.18
2019-03-13T09:47:21.850Z,98046.03
2019-03-13T09:49:51.339Z,98049.70
2019-03-13T09:52:01.170Z,98060.01
2019-03-13T09:54:33.134Z,98068.02
2019-03-13T09:56:43.407Z,98056.44
2019-03-13T09:58:54.898Z,98037.34
2019-03-13T10:01:15.135Z,98051.55
2019-03-13T10:03:29.110Z,98044.77
2019-03-13T10:05:50.488Z,98045.19
2019-03-13T10:07:59.996Z,98032.64
2019-03-13T10:10:21.620Z,98041.89
2019-03-13T10:12:50.532Z,98036.11
2019-03-13T10:15:16.048Z,98040.56
2019-03-13T10:17:39.288Z,98030.73
2019-03-13T10:20:05.705Z,98027.61
2019-03-13T10:22:18.039Z,98036.22
2019-03-13T10:24:35.188Z,98035.25
2019-03-13T10:26:57.930Z,98034.47
2019-03-13T10:29:13.400Z,98012.69
2019-03-13T10:31:32.538Z,98023.86
2019-03-13T10:33:58.342Z,98020.33
2019-03-13T10:36:11.838Z,98015.31
2019-03-13T10:38:33.057Z,98018.02
2019-03-13T10:40:51.313Z,98007.87
2019-03-13T10:43:17.287Z,98016.82
2019-03-13T10:45:48.844Z,98019.41
2019-03-13T10:48:04.413Z,98013.44
2019-03-13T10:50:18.031Z,97999.92
2019-03-13T10:52:29.681Z,98001.64
2019-03-13T10:54:55.579Z,97999.16
2019-03-13T10:57:26.523Z,98001.90
2019-03-13T10:59:54.871Z,98000.97
2019-03-13T11:02:26.285Z,98008.48
2019-03-13T11:04:58.137Z,98004.13
2019-03-13T11:07:12.738Z,98028.81
2019-03-13T11:09:36.682Z,98027.17
2019-03-13T11:12:08.115Z,98040.83
2019-03-13T11:14:36.500Z,98029.28
2019-03-13T11:17:05.266Z,98027.03
2019-03-13T11:19:24.311Z,98018.41
2019-03-13T11:21:45.652Z,98015.01
2019-03-13T11:24:03.944Z,98017.10
2019-03-13T11:26:32.068Z,97994.07
2019-03-13T11:29:01.222Z,98001.50
2019-03-13T11:31:39.044Z,97995.89
2019-03-13T11:34:01.174Z,98009.03
2019-03-13T11:36:11.381Z,97992.32
2019-03-13T11:38:34.690Z,97990.63
2019-03-13T11:40:56.297Z,97991.30
2019-03-13T11:43:22.048Z,97991.24
2019-03-13T11:45:43.729Z,97987.64
2019-03-13T11:48:09.537Z,97981.33
2019-03-13T11:50:38.610Z,97984.39
2019-03-13T11:52:54.693Z,97973.09
2019-03-13T11:55:20.243Z,97963.86
2019-03-13T11:57:37.177Z,97967.44
2019-03-13T11:59:57.067Z,97964.20
2019-03-13T12:02:35.010Z,97962.38
2019-03-13T12:04:46.180Z,97949.94
2019-03-13T12:07:07.405Z,97953.34
2019-03-13T12:09:19.509Z,97934.39
2019-03-13T12:11:34.776Z,97944.83
2019-03-13T12:13:49.966Z,97936.41
2019-03-13T12:16:01.224Z,97922.74
2019-03-13T12:18:24.202Z,97931.66
2019-03-13T12:20:53.165Z,97926.94
2019-03-13T12:23:18.689Z,97933.32
2019-03-13T12:26:03.364Z,97929.47
2019-03-13T12:31:08.745Z,97918.32
2019-03-13T12:33:39.122Z,97915.81
2019-03-13T12:35:56.444Z,97918.90
2019-03-13T12:38:31.147Z,97908.39
2019-03-13T12:40:59.822Z,97901.07
2019-03-13T12:43:12.788Z,97891.53
2019-03-13T12:45:28.296Z,97897.52
2019-03-13T12:47:57.129Z,97904.02
2019-03-13T12:50:06.981Z,97895.22
2019-03-13T12:52:24.355Z,97890.56
2019-03-13T12:54:42.597Z,97888.69
2019-03-13T12:57:08.255Z,97886.74
2019-03-13T12:59:30.999Z,97878.57
2019-03-13T13:02:08.942Z,97873.84
2019-03-13T13:04:31.940Z,97881.26
2019-03-13T14:01:19.764Z,97834.88
2019-03-13T14:03:23.506Z,97845.73
2019-03-13T14:05:27.229Z,97833.47
2019-03-13T14:07:31.059Z,97820.66
2019-03-13T14:09:34.795Z,97835.91
2019-03-13T14:11:38.623Z,97833.96
2019-03-13T14:13:42.337Z,97819.50
2019-03-13T14:15:46.049Z,97832.83
2019-03-13T14:17:49.786Z,97825.94
2019-03-13T14:19:53.497Z,97830.26
2019-03-13T14:21:57.305Z,97826.14
2019-03-13T14:24:01.014Z,97819.87
2019-03-13T14:26:04.799Z,97824.23
2019-03-13T14:28:08.658Z,97825.33
2019-03-13T14:30:13.323Z,97816.66
2019-03-13T14:32:17.167Z,97818.56
2019-03-13T14:34:20.872Z,97808.23
2019-03-13T14:36:24.592Z,97817.20
2019-03-13T14:38:28.337Z,97809.59
2019-03-13T14:40:32.068Z,97805.77
2019-03-13T14:42:35.917Z,97810.16
2019-03-13T14:44:39.628Z,97800.40
2019-03-13T14:46:43.453Z,97791.16
2019-03-13T14:48:47.171Z,97793.08
2019-03-13T14:50:50.953Z,97792.80
2019-03-13T14:52:54.757Z,97788.17
2019-03-13T14:54:58.479Z,97790.07
2019-03-13T14:57:02.242Z,97800.68
2019-03-13T14:59:05.955Z,97801.14
2019-03-13T15:01:09.811Z,97792.92
2019-03-13T15:03:13.610Z,97796.41
2019-03-13T15:05:17.576Z,97792.83
2019-03-13T15:07:21.401Z,97787.38
2019-03-13T15:09:25.096Z,97786.00
2019-03-13T15:11:28.796Z,97785.16
2019-03-13T15:13:32.523Z,97783.77
2019-03-13T15:15:36.224Z,97776.95
2019-03-13T15:17:39.965Z,97785.10
2019-03-13T15:19:43.671Z,97776.42
2019-03-13T15:21:47.427Z,97783.20
2019-03-13T15:23:51.259Z,97776.13
2019-03-13T15:25:54.980Z,97781.57
2019-03-13T15:27:58.715Z,97793.05
2019-03-13T15:30:02.531Z,97775.14
2019-03-13T15:32:06.237Z,97785.27
2019-03-13T15:34:09.975Z,97775.21
2019-03-13T15:36:13.754Z,97776.59
2019-03-13T15:38:17.495Z,97774.91
2019-03-13T15:40:21.356Z,97778.41
2019-03-13T15:42:25.140Z,97778.67
2019-03-13T15:44:28.975Z,97772.08
2019-03-13T15:46:33.006Z,97771.48
2019-03-13T15:48:36.785Z,97773.64
2019-03-13T15:50:40.651Z,97772.25
2019-03-13T15:52:44.586Z,97781.20
2019-03-13T15:54:48.315Z,97780.11
2019-03-13T15:56:52.015Z,97773.88
2019-03-13T15:58:55.743Z,97779.02
2019-03-13T16:00:59.452Z,97789.36
2019-03-13T16:03:03.356Z,97787.95
2019-03-13T16:05:07.231Z,97792.77
2019-03-13T16:07:10.963Z,97793.76
2019-03-13T16:09:14.792Z,97797.44
2019-03-13T16:11:18.501Z,97826.62
2019-03-13T16:13:22.344Z,97815.47
2019-03-13T16:15:27.688Z,97816.63
2019-03-13T16:17:31.389Z,97821.65
2019-03-13T16:19:35.220Z,97812.03
2019-03-13T16:21:38.927Z,97822.80
2019-03-13T16:23:42.662Z,97820.31
2019-03-13T16:25:46.377Z,97820.87
2019-03-13T16:27:50.158Z,97817.10
2019-03-13T16:29:54.013Z,97821.17
2019-03-13T16:31:58.132Z,97816.27
2019-03-13T16:34:01.964Z,97814.06
2019-03-13T16:36:05.736Z,97802.94
2019-03-13T16:38:09.643Z,97805.39
2019-03-13T16:40:14.621Z,97803.23
2019-03-13T16:42:18.322Z,97811.91
2019-03-13T16:44:22.062Z,97807.81
2019-03-13T16:46:25.762Z,97808.05
2019-03-13T16:48:29.531Z,97805.27
2019-03-13T16:50:33.337Z,97816.55
2019-03-13T16:52:37.116Z,97805.06
2019-03-13T16:54:40.965Z,97809.59
2019-03-13T16:56:44.663Z,97810.48
2019-03-13T16:58:48.500Z,97813.22
2019-03-13T17:00:52.384Z,97808.20
2019-03-13T17:02:56.260Z,97806.58
2019-03-13T17:04:59.997Z,97811.17
2019-03-13T17:07:03.775Z,97806.05
2019-03-13T17:09:07.941Z,97803.91
2019-03-13T17:11:11.624Z,97806.89
2019-03-13T17:13:15.427Z,97814.49
2019-03-13T17:15:20.053Z,97813.92
2019-03-13T17:17:23.829Z,97813.63
2019-03-13T17:19:27.662Z,97813.05
2019-03-13T17:21:31.364Z,97827.95
2019-03-13T17:23:35.149Z,97824.67
2019-03-13T17:25:38.982Z,97821.14
2019-03-13T17:27:42.697Z,97826.47
2019-03-13T17:29:46.557Z,97815.59
2019-03-13T17:31:50.341Z,97828.61
2019-03-13T17:33:54.188Z,97826.95
2019-03-13T17:35:57.886Z,97828.04
2019-03-13T17:38:01.598Z,97825.33
2019-03-13T17:40:06.408Z,97828.31
2019-03-13T17:42:10.111Z,97827.78
2019-03-13T17:44:14.027Z,97819.83
2019-03-13T17:46:17.748Z,97813.23
2019-03-13T17:48:21.538Z,97813.98
2019-03-13T17:50:25.622Z,97818.83
2019-03-13T17:52:29.331Z,97814.72
2019-03-13T17:54:33.170Z,97814.98
2019-03-13T17:56:36.880Z,97808.39
2019-03-13T17:58:40.582Z,97805.11
2019-03-13T18:00:49.627Z,97805.64
2019-03-13T18:02:53.427Z,97814.84
2019-03-13T18:04:57.166Z,97811.99
2019-03-13T18:07:00.889Z,97813.22
2019-03-13T18:09:06.264Z,97811.83
2019-03-13T18:11:10.082Z,97811.78
2019-03-13T18:13:13.788Z,97806.27
2019-03-13T18:15:17.823Z,97805.70
2019-03-13T18:17:21.617Z,97810.48
2019-03-13T18:19:25.364Z,97814.09
2019-03-13T18:21:29.149Z,97806.08
2019-03-13T18:23:32.879Z,97810.05
2019-03-13T18:25:36.615Z,97814.58
2019-03-13T18:27:40.489Z,97804.95
2019-03-13T18:29:44.349Z,97814.23
2019-03-13T18:31:48.067Z,97809.80
2019-03-13T18:33:53.165Z,97811.16
2019-03-13T18:35:58.734Z,97802.48
2019-03-13T18:41:04.323Z,97807.89
2019-03-13T18:43:08.069Z,97794.98
2019-03-13T18:45:14.772Z,97795.20
2019-03-13T18:47:18.549Z,97802.73
2019-03-13T18:49:22.263Z,97807.84
2019-03-13T18:51:26.013Z,97802.16
2019-03-13T18:53:29.779Z,97812.72
2019-03-13T18:55:33.709Z,97808.45
2019-03-13T18:57:37.504Z,97816.56
2019-03-13T18:59:41.346Z,97820.00
2019-03-13T19:01:45.113Z,97821.08
2019-03-13T19:03:48.959Z,97822.13
2019-03-13T19:05:54.655Z,97820.25
2019-03-13T19:07:58.762Z,97822.19
2019-03-13T19:10:02.666Z,97811.73
2019-03-13T19:12:06.535Z,97809.59
2019-03-13T19:14:10.443Z,97827.23
2019-03-13T19:16:14.318Z,97824.83
2019-03-13T19:18:18.083Z,97828.66
2019-03-13T19:20:22.024Z,97822.48
2019-03-13T19:22:25.751Z,97832.25
2019-03-13T19:24:31.669Z,97834.18
2019-03-13T19:26:34.902Z,97826.06
2019-03-13T19:28:38.739Z,97829.07
2019-03-13T19:30:42.559Z,97827.72
2019-03-13T19:32:46.417Z,97826.38
2019-03-13T19:34:50.152Z,97818.48
2019-03-13T19:36:53.962Z,97829.55
2019-03-13T19:38:57.725Z,97822.42
2019-03-13T19:41:01.569Z,97819.84
2019-03-13T19:43:05.432Z,97820.78
2019-03-13T19:45:12.126Z,97824.45
2019-03-13T19:47:16.094Z,97820.81
2019-03-13T19:49:19.807Z,97824.81
2019-03-13T19:51:23.677Z,97828.34
2019-03-13T19:53:27.439Z,97822.99
2019-03-13T19:55:31.344Z,97827.95
2019-03-13T19:57:35.044Z,97822.08
2019-03-13T19:59:38.749Z,97817.55
2019-03-13T20:01:42.515Z,97824.11
2019-03-13T20:09:16.847Z,97822.02
2019-03-13T20:11:20.745Z,97826.11
2019-03-13T20:13:24.469Z,97824.86
2019-03-13T20:15:29.898Z,97817.99
2019-03-13T20:17:33.605Z,97827.06
2019-03-13T20:19:37.386Z,97813.66
2019-03-13T20:21:41.141Z,97827.41
2019-03-13T20:23:44.856Z,97825.35
2019-03-13T20:25:48.593Z,97825.46
2019-03-13T20:27:54.629Z,97821.77
2019-03-13T20:29:57.831Z,97821.30
2019-03-13T20:32:01.658Z,97821.42
2019-03-13T20:34:05.514Z,97817.64
2019-03-13T20:36:09.397Z,97813.06
2019-03-13T20:38:13.225Z,97812.95
2019-03-13T20:40:18.740Z,97810.38
2019-03-13T20:42:22.502Z,97808.25
2019-03-13T20:44:26.285Z,97810.20
2019-03-13T20:46:30.223Z,97816.41
2019-03-13T20:48:33.920Z,97804.33
2019-03-13T20:50:38.290Z,97812.83
2019-03-13T20:52:42.106Z,97806.33
2019-03-13T20:54:46.848Z,97808.44
2019-03-13T20:56:50.653Z,97799.73
2019-03-13T20:58:54.467Z,97790.00
2019-03-13T21:00:58.216Z,97804.55
2019-03-13T21:03:01.925Z,97803.50
2019-03-13T21:05:05.948Z,97806.78
2019-03-13T21:07:09.739Z,97803.56
2019-03-13T21:09:13.443Z,97806.84
2019-03-13T21:11:17.225Z,97804.20
2019-03-13T21:13:21.055Z,97797.45
2019-03-13T21:15:24.955Z,97811.27
2019-03-13T21:17:28.780Z,97810.44
2019-03-13T21:19:32.513Z,97812.89
2019-03-13T21:21:36.276Z,97822.86
2019-03-13T21:23:39.974Z,97818.29
2019-03-13T21:25:43.676Z,97822.65
2019-03-13T21:27:48.343Z,97831.33
2019-03-13T21:29:52.058Z,97834.03
2019-03-13T21:31:55.794Z,97836.48
2019-03-13T21:33:59.512Z,97831.64
2019-03-13T21:36:03.378Z,97833.27
2019-03-13T21:38:07.343Z,97837.63
2019-03-13T21:40:11.754Z,97842.25
2019-03-13T21:42:15.653Z,97847.20
2019-03-13T21:44:19.384Z,97852.35
2019-03-13T21:46:23.202Z,97851.89
2019-03-13T21:48:26.993Z,97859.23
2019-03-13T21:50:30.687Z,97855.23
2019-03-13T21:52:34.494Z,97850.97
2019-03-13T21:54:38.201Z,97853.95
2019-03-13T21:56:41.942Z,97850.72
2019-03-13T21:58:45.737Z,97861.00
2019-03-13T22:00:49.642Z,97859.66
2019-03-13T22:02:53.449Z,97858.30
2019-03-13T22:04:57.121Z,97851.03
2019-03-13T22:07:00.952Z,97855.30
2019-03-13T22:09:06.159Z,97859.08
2019-03-13T22:11:09.905Z,97870.40
2019-03-13T22:13:13.678Z,97872.80
2019-03-13T22:15:17.560Z,97883.53
2019-03-13T22:17:21.401Z,97884.30
2019-03-13T22:19:25.110Z,97888.81
2019-03-13T22:21:28.885Z,97889.58
2019-03-13T22:23:32.589Z,97883.66
2019-03-13T22:25:36.284Z,97896.85
2019-03-13T22:27:40.091Z,97893.88
2019-03-13T22:29:43.835Z,97900.32
2019-03-13T22:31:47.570Z,97900.02
2019-03-13T22:33:51.375Z,97902.44
2019-03-13T22:35:55.080Z,97911.13
2019-03-13T22:37:58.906Z,97908.11
2019-03-13T22:40:02.615Z,97905.97
2019-03-13T22:42:06.591Z,97907.84
2019-03-13T22:44:10.302Z,97912.16
2019-03-13T22:46:13.992Z,97908.11
2019-03-13T22:48:17.846Z,97910.81
2019-03-13T22:50:21.561Z,97905.91
2019-03-13T22:52:25.479Z,97905.01
2019-03-13T22:54:29.257Z,97909.21
2019-03-13T22:56:32.967Z,97903.16
2019-03-13T22:58:36.713Z,97894.99
2019-03-13T23:01:01.068Z,97906.80
2019-03-13T23:03:05.138Z,97903.20
2019-03-13T23:05:08.994Z,97904.77
2019-03-13T23:07:12.831Z,97905.25
2019-03-13T23:09:16.625Z,97904.94
2019-03-13T23:11:20.332Z,97913.35
2019-03-13T23:13:24.278Z,97911.69
2019-03-13T23:15:28.055Z,97915.50
2019-03-13T23:17:31.886Z,97917.67
2019-03-13T23:19:35.618Z,97925.02
2019-03-13T23:21:39.321Z,97933.94
2019-03-13T23:23:43.224Z,97946.53
2019-03-13T23:25:46.998Z,97941.48
2019-03-13T23:27:50.916Z,97934.80
2019-03-13T23:29:54.629Z,97944.63
2019-03-13T23:31:58.371Z,97939.53
2019-03-13T23:34:02.084Z,97945.59
2019-03-13T23:36:06.074Z,97942.70
2019-03-13T23:38:10.261Z,97948.86
2019-03-13T23:40:14.033Z,97938.52
2019-03-13T23:42:17.734Z,97942.73
2019-03-13T23:44:21.519Z,97947.41
2019-03-13T23:46:25.288Z,97942.63
2019-03-13T23:48:29.110Z,97947.06
2019-03-13T23:50:32.912Z,97945.50
2019-03-13T23:52:36.628Z,97947.98
2019-03-13T23:54:40.346Z,97955.11
2019-03-13T23:56:44.081Z,97952.33
2019-03-13T23:58:47.780Z,97963.81
